createdAt,value
2018-12-07T00:00:38.050Z,14.10
2018-12-07T00:03:12.095Z,14.00
2018-12-07T00:05:46.252Z,14.10
2018-12-07T00:08:20.338Z,14.10
2018-12-07T00:10:54.394Z,14.00
2018-12-07T00:13:28.422Z,14.10
2018-12-07T00:16:03.535Z,14.20
2018-12-07T00:18:37.695Z,14.10
2018-12-07T00:21:11.767Z,14.20
2018-12-07T00:23:45.813Z,14.20
2018-12-07T00:26:22.967Z,14.10
2018-12-07T00:28:57.122Z,14.20
2018-12-07T00:31:31.417Z,14.20
2018-12-07T00:34:05.481Z,14.20
2018-12-07T00:36:40.643Z,14.20
2018-12-07T00:39:14.684Z,14.20
2018-12-07T00:41:48.783Z,14.20
2018-12-07T00:44:22.826Z,14.20
2018-12-07T00:46:56.990Z,14.30
2018-12-07T00:49:31.078Z,14.20
2018-12-07T00:52:05.362Z,14.30
2018-12-07T00:54:40.519Z,14.20
2018-12-07T00:57:14.658Z,14.30
2018-12-07T00:59:48.710Z,14.30
2018-12-07T01:02:22.790Z,14.30
2018-12-07T01:04:56.891Z,14.30
2018-12-07T01:07:30.954Z,14.30
2018-12-07T01:10:06.648Z,14.20
2018-12-07T01:12:40.686Z,14.20
2018-12-07T01:15:14.835Z,14.30
2018-12-07T01:17:48.883Z,14.20
2018-12-07T01:20:23.179Z,14.20
2018-12-07T01:22:57.226Z,14.30
2018-12-07T01:25:31.290Z,14.20
2018-12-07T01:28:05.362Z,14.30
2018-12-07T01:30:39.397Z,14.30
2018-12-07T01:33:13.534Z,14.20
2018-12-07T01:35:47.677Z,14.30
2018-12-07T01:38:21.749Z,14.20
2018-12-07T01:40:55.785Z,14.20
2018-12-07T01:43:29.865Z,14.20
2018-12-07T01:46:04.963Z,14.10
2018-12-07T01:48:39.037Z,14.10
2018-12-07T01:51:13.123Z,14.20
2018-12-07T01:53:47.177Z,14.20
2018-12-07T01:56:21.306Z,14.20
2018-12-07T01:58:55.466Z,14.20
2018-12-07T02:01:29.532Z,14.20
2018-12-07T02:04:03.605Z,14.20
2018-12-07T02:06:37.661Z,14.20
2018-12-07T02:09:13.927Z,14.30
2018-12-07T02:11:48.001Z,14.20
2018-12-07T02:14:22.042Z,14.30
2018-12-07T02:16:56.131Z,14.30
2018-12-07T02:19:30.279Z,14.20
2018-12-07T02:22:04.424Z,14.20
2018-12-07T02:24:38.468Z,14.20
2018-12-07T02:27:12.555Z,14.20
2018-12-07T02:29:46.631Z,14.20
2018-12-07T02:32:20.746Z,14.30
2018-12-07T02:34:54.799Z,14.20
2018-12-07T02:37:28.881Z,14.20
2018-12-07T02:40:03.114Z,14.20
2018-12-07T02:42:37.178Z,14.20
2018-12-07T02:45:11.235Z,14.20
2018-12-07T02:47:45.291Z,14.20
2018-12-07T02:50:19.643Z,14.20
2018-12-07T02:52:53.728Z,14.20
2018-12-07T02:55:27.758Z,14.30
2018-12-07T02:58:02.354Z,14.20
2018-12-07T03:00:36.634Z,14.20
2018-12-07T03:03:10.715Z,14.20
2018-12-07T03:05:44.743Z,14.20
2018-12-07T03:08:18.802Z,14.30
2018-12-07T03:10:52.938Z,14.20
2018-12-07T03:13:27.976Z,14.20
2018-12-07T03:16:02.320Z,14.20
2018-12-07T03:18:36.347Z,14.20
2018-12-07T03:21:10.403Z,14.30
2018-12-07T03:23:44.467Z,14.20
2018-12-07T03:26:18.510Z,14.20
2018-12-07T03:28:52.555Z,14.20
2018-12-07T03:31:26.699Z,14.20
2018-12-07T03:34:02.371Z,14.20
2018-12-07T03:36:36.735Z,14.10
2018-12-07T03:39:10.773Z,14.20
2018-12-07T03:41:45.921Z,14.20
2018-12-07T03:44:20.351Z,14.20
2018-12-07T03:46:54.411Z,14.30
2018-12-07T03:49:28.451Z,14.20
2018-12-07T03:52:03.007Z,14.20
2018-12-07T03:54:37.054Z,14.20
2018-12-07T03:57:11.134Z,14.30
2018-12-07T03:59:45.174Z,14.20
2018-12-07T04:02:19.231Z,14.20
2018-12-07T04:04:53.258Z,14.10
2018-12-07T04:07:27.324Z,14.10
2018-12-07T04:10:01.351Z,14.00
2018-12-07T04:12:35.406Z,14.10
2018-12-07T04:15:09.469Z,14.10
2018-12-07T04:17:43.522Z,14.10
2018-12-07T04:20:17.554Z,14.10
2018-12-07T04:22:51.623Z,14.00
2018-12-07T04:25:25.665Z,14.00
2018-12-07T04:28:01.713Z,14.00
2018-12-07T04:30:35.747Z,14.00
2018-12-07T04:33:09.914Z,14.00
2018-12-07T04:35:43.947Z,14.00
2018-12-07T04:38:17.999Z,14.00
2018-12-07T04:40:52.030Z,14.00
2018-12-07T04:43:26.111Z,13.90
2018-12-07T04:46:00.149Z,13.90
2018-12-07T04:48:34.446Z,14.00
2018-12-07T04:51:08.503Z,13.90
2018-12-07T04:53:42.564Z,13.90
2018-12-07T04:56:16.612Z,13.90
2018-12-07T04:58:50.685Z,13.80
2018-12-07T05:01:24.824Z,13.90
2018-12-07T05:03:58.906Z,13.80
2018-12-07T05:06:33.043Z,13.80
2018-12-07T05:09:07.433Z,13.80
2018-12-07T05:11:41.488Z,13.80
2018-12-07T05:14:15.530Z,13.80
2018-12-07T05:16:50.663Z,13.80
2018-12-07T05:19:24.764Z,13.70
2018-12-07T05:21:58.788Z,13.70
2018-12-07T05:24:34.621Z,13.70
2018-12-07T05:27:09.018Z,13.70
2018-12-07T05:29:43.097Z,13.60
2018-12-07T05:32:17.238Z,13.70
2018-12-07T05:34:51.282Z,13.60
2018-12-07T05:37:25.346Z,13.60
2018-12-07T05:39:59.384Z,13.70
2018-12-07T05:42:33.546Z,13.80
2018-12-07T05:45:07.902Z,13.80
2018-12-07T05:47:41.942Z,13.80
2018-12-07T05:50:16.904Z,13.70
2018-12-07T05:52:51.091Z,13.70
2018-12-07T05:55:25.119Z,13.70
2018-12-07T05:57:59.231Z,13.70
2018-12-07T06:00:34.387Z,13.60
2018-12-07T06:03:08.530Z,13.70
2018-12-07T06:05:42.580Z,13.70
2018-12-07T06:08:16.638Z,13.70
2018-12-07T06:10:50.694Z,13.70
2018-12-07T06:13:25.660Z,13.70
2018-12-07T06:16:00.814Z,13.70
2018-12-07T06:18:35.980Z,13.80
2018-12-07T06:21:10.005Z,13.70
2018-12-07T06:23:44.074Z,13.70
2018-12-07T06:26:18.110Z,13.80
2018-12-07T06:28:52.180Z,13.80
2018-12-07T06:31:26.383Z,13.90
2018-12-07T06:34:00.459Z,13.80
2018-12-07T06:36:34.519Z,13.80
2018-12-07T06:39:10.270Z,13.80
2018-12-07T06:41:44.474Z,13.90
2018-12-07T06:44:18.542Z,13.90
2018-12-07T06:46:52.594Z,13.80
2018-12-07T06:49:26.723Z,13.90
2018-12-07T06:52:00.796Z,13.80
2018-12-07T06:54:34.866Z,13.90
2018-12-07T06:57:12.848Z,13.90
2018-12-07T06:59:48.015Z,13.90
2018-12-07T07:02:22.227Z,13.90
2018-12-07T07:04:56.601Z,13.80
2018-12-07T07:07:30.642Z,13.80
2018-12-07T07:10:05.701Z,13.80
2018-12-07T07:12:39.740Z,13.80
2018-12-07T07:15:13.920Z,13.80
2018-12-07T07:17:47.968Z,13.90
2018-12-07T07:20:22.062Z,13.80
2018-12-07T07:22:56.117Z,13.80
2018-12-07T07:25:30.182Z,13.80
2018-12-07T07:28:04.238Z,13.80
2018-12-07T07:30:40.318Z,13.80
2018-12-07T07:33:14.389Z,13.80
2018-12-07T07:35:49.850Z,13.90
2018-12-07T07:38:23.958Z,13.80
2018-12-07T07:40:57.991Z,13.80
2018-12-07T07:43:32.386Z,13.80
2018-12-07T07:46:06.527Z,13.80
2018-12-07T07:48:40.696Z,13.80
2018-12-07T07:51:14.743Z,13.80
2018-12-07T07:53:48.811Z,13.80
2018-12-07T07:56:22.862Z,13.70
2018-12-07T07:58:56.925Z,13.70
2018-12-07T08:01:31.372Z,13.70
2018-12-07T08:04:05.497Z,13.70
2018-12-07T08:06:40.627Z,13.70
2018-12-07T08:09:14.795Z,13.60
2018-12-07T08:11:48.834Z,13.70
2018-12-07T08:14:22.878Z,13.70
2018-12-07T08:16:57.007Z,13.70
2018-12-07T08:19:31.053Z,13.80
2018-12-07T08:22:05.106Z,13.80
2018-12-07T08:24:39.159Z,13.80
2018-12-07T08:27:13.195Z,13.70
2018-12-07T08:29:47.293Z,13.80
2018-12-07T08:32:21.444Z,13.80
2018-12-07T08:34:55.530Z,13.70
2018-12-07T08:37:29.672Z,13.80
2018-12-07T08:40:08.845Z,13.80
2018-12-07T08:42:42.874Z,13.80
2018-12-07T08:45:17.023Z,13.80
2018-12-07T08:47:51.171Z,13.80
2018-12-07T08:50:25.225Z,13.80
2018-12-07T08:52:59.478Z,13.90
2018-12-07T08:55:33.625Z,13.90
2018-12-07T08:58:07.943Z,14.00
2018-12-07T09:00:42.010Z,14.00
2018-12-07T09:03:16.062Z,13.90
2018-12-07T09:05:50.246Z,13.90
2018-12-07T09:08:24.330Z,14.00
2018-12-07T09:10:59.549Z,14.00
2018-12-07T09:13:33.611Z,14.10
2018-12-07T09:16:07.806Z,13.90
2018-12-07T09:18:42.214Z,13.90
2018-12-07T09:21:16.277Z,13.90
2018-12-07T09:23:50.473Z,14.00
2018-12-07T09:26:24.799Z,14.00
2018-12-07T09:28:58.899Z,14.00
2018-12-07T09:31:32.956Z,14.10
2018-12-07T09:34:07.118Z,14.10
2018-12-07T09:36:41.198Z,14.20
2018-12-07T09:39:15.274Z,14.10
2018-12-07T09:41:49.359Z,14.20
2018-12-07T09:44:23.493Z,14.10
2018-12-07T09:46:57.546Z,14.20
2018-12-07T09:49:31.637Z,14.20
2018-12-07T09:52:05.689Z,14.10
2018-12-07T09:54:40.883Z,14.10
2018-12-07T09:57:14.942Z,14.20
2018-12-07T09:59:49.007Z,14.10
2018-12-07T10:02:23.041Z,14.20
2018-12-07T10:04:58.238Z,14.20
2018-12-07T10:07:32.275Z,14.10
2018-12-07T10:10:06.818Z,14.00
2018-12-07T10:12:40.897Z,14.10
2018-12-07T10:15:15.063Z,13.90
2018-12-07T10:17:49.153Z,13.90
2018-12-07T10:20:23.202Z,14.00
2018-12-07T10:22:59.306Z,13.90
2018-12-07T10:25:33.395Z,14.00
2018-12-07T10:28:07.430Z,13.90
2018-12-07T10:30:42.053Z,13.90
2018-12-07T10:33:16.255Z,13.90
2018-12-07T10:35:50.438Z,14.00
2018-12-07T10:38:24.499Z,14.00
2018-12-07T10:40:58.564Z,14.00
2018-12-07T10:43:32.638Z,14.00
2018-12-07T10:46:11.604Z,14.00
2018-12-07T10:48:46.275Z,13.90
2018-12-07T10:51:20.333Z,13.90
2018-12-07T10:53:54.602Z,13.90
2018-12-07T10:56:28.787Z,13.90
2018-12-07T10:59:03.026Z,13.80
2018-12-07T11:01:42.377Z,13.80
2018-12-07T11:04:21.869Z,13.80
2018-12-07T11:07:01.419Z,13.70
2018-12-07T11:09:40.907Z,13.70
2018-12-07T11:12:21.366Z,13.60
2018-12-07T11:16:01.719Z,13.60
2018-12-07T11:19:45.023Z,13.60
2018-12-07T11:22:24.362Z,13.70
2018-12-07T11:25:03.830Z,13.80
2018-12-07T11:27:43.045Z,13.70
2018-12-07T11:30:22.541Z,13.60
2018-12-07T11:33:02.027Z,13.80
2018-12-07T11:35:38.913Z,13.70
2018-12-07T11:38:12.954Z,13.70
2018-12-07T11:40:47.006Z,13.70
2018-12-07T11:43:23.255Z,13.70
2018-12-07T11:45:57.379Z,13.70
2018-12-07T11:48:33.617Z,13.70
2018-12-07T11:51:07.694Z,13.70
2018-12-07T11:53:41.823Z,13.70
2018-12-07T11:56:16.985Z,13.80
2018-12-07T11:58:51.019Z,13.80
2018-12-07T12:01:26.125Z,13.70
2018-12-07T12:04:02.661Z,13.70
2018-12-07T12:06:36.725Z,13.70
2018-12-07T12:09:10.794Z,13.80
2018-12-07T12:11:46.846Z,13.80
2018-12-07T12:14:20.905Z,13.80
2018-12-07T12:16:54.978Z,13.70
2018-12-07T12:19:29.020Z,13.80
2018-12-07T12:22:03.199Z,13.80
2018-12-07T12:24:37.252Z,13.80
2018-12-07T12:27:11.323Z,13.80
2018-12-07T12:29:45.490Z,13.90
2018-12-07T12:32:19.606Z,13.80
2018-12-07T12:34:53.650Z,13.80
2018-12-07T12:37:27.901Z,13.80
2018-12-07T12:40:02.691Z,13.90
2018-12-07T12:42:36.835Z,14.00
2018-12-07T12:45:11.019Z,13.80
2018-12-07T12:47:45.298Z,13.90
2018-12-07T12:50:24.771Z,13.90
2018-12-07T12:52:58.818Z,13.90
2018-12-07T12:55:32.867Z,13.90
2018-12-07T12:58:06.970Z,13.90
2018-12-07T13:00:42.121Z,13.90
2018-12-07T13:03:16.195Z,14.10
2018-12-07T13:05:50.330Z,14.00
2018-12-07T13:08:25.482Z,13.90
2018-12-07T13:10:59.646Z,14.00
2018-12-07T13:13:33.778Z,14.00
2018-12-07T13:16:12.199Z,14.10
2018-12-07T13:18:46.321Z,14.10
2018-12-07T13:21:20.420Z,14.20
2018-12-07T13:23:58.333Z,14.10
2018-12-07T13:26:32.412Z,14.10
2018-12-07T13:29:06.462Z,14.00
2018-12-07T13:31:40.571Z,13.90
2018-12-07T13:34:14.615Z,13.80
2018-12-07T13:36:48.677Z,13.80
2018-12-07T13:39:22.783Z,13.90
2018-12-07T13:41:56.952Z,13.90
2018-12-07T13:44:31.246Z,13.90
2018-12-07T13:47:05.820Z,14.00
2018-12-07T13:49:40.893Z,14.00
2018-12-07T13:52:15.283Z,14.00
2018-12-07T13:54:49.978Z,14.10
2018-12-07T13:59:53.790Z,14.00
2018-12-07T14:02:28.573Z,14.00
2018-12-07T14:05:03.154Z,14.00
2018-12-07T14:07:38.837Z,13.90
2018-12-07T14:10:13.123Z,13.90
2018-12-07T14:12:47.796Z,14.00
2018-12-07T14:15:23.065Z,14.00
2018-12-07T14:17:59.285Z,13.90
2018-12-07T14:20:34.769Z,13.90
2018-12-07T14:23:11.630Z,14.00
2018-12-07T14:25:47.995Z,14.00
2018-12-07T14:28:22.268Z,14.00
2018-12-07T14:30:56.763Z,14.10
2018-12-07T14:33:30.919Z,14.10
2018-12-07T14:36:05.220Z,14.10
2018-12-07T14:38:40.511Z,14.00
2018-12-07T14:41:16.755Z,14.10
2018-12-07T14:43:51.109Z,13.90
2018-12-07T14:46:25.667Z,13.90
2018-12-07T14:49:10.142Z,13.90
2018-12-07T14:51:44.539Z,13.90
2018-12-07T14:54:18.950Z,13.80
2018-12-07T14:56:54.267Z,13.80
2018-12-07T14:59:28.492Z,13.80
2018-12-07T15:02:03.060Z,13.80
2018-12-07T15:04:37.221Z,13.70
2018-12-07T15:07:12.426Z,13.70
2018-12-07T15:09:46.547Z,13.70
2018-12-07T15:12:20.628Z,13.80
2018-12-07T15:14:54.840Z,13.60
2018-12-07T15:17:28.957Z,13.60
2018-12-07T15:20:03.461Z,13.50
2018-12-07T15:22:37.795Z,13.50
2018-12-07T15:25:11.882Z,13.50
2018-12-07T15:27:46.009Z,13.50
2018-12-07T15:30:20.373Z,13.50
2018-12-07T15:32:54.691Z,13.50
2018-12-07T15:35:28.936Z,13.50
2018-12-07T15:38:03.691Z,13.60
2018-12-07T15:40:38.010Z,13.60
2018-12-07T15:43:12.278Z,13.40
2018-12-07T15:45:46.613Z,13.40
2018-12-07T15:48:20.888Z,13.50
2018-12-07T15:50:55.281Z,13.40
2018-12-07T15:53:29.478Z,13.40
2018-12-07T15:56:04.245Z,13.50
2018-12-07T15:58:38.625Z,13.50
2018-12-07T16:01:12.801Z,13.50
2018-12-07T16:03:47.969Z,13.50
2018-12-07T16:06:23.222Z,13.50
2018-12-07T16:08:57.678Z,13.50
2018-12-07T16:11:33.064Z,13.40
2018-12-07T16:14:07.255Z,13.40
2018-12-07T16:16:41.488Z,13.30
2018-12-07T16:19:17.658Z,13.40
2018-12-07T16:21:51.752Z,13.40
2018-12-07T16:24:26.157Z,13.40
2018-12-07T16:27:04.656Z,13.40
2018-12-07T16:29:38.940Z,13.30
2018-12-07T16:32:13.398Z,13.30
2018-12-07T16:34:52.782Z,13.30
2018-12-07T16:37:27.042Z,13.30
2018-12-07T16:40:01.672Z,13.40
2018-12-07T16:42:36.044Z,13.40
2018-12-07T16:45:12.509Z,13.50
2018-12-07T16:47:48.894Z,13.50
2018-12-07T16:50:24.073Z,13.50
2018-12-07T16:52:58.337Z,13.50
2018-12-07T16:55:33.492Z,13.50
2018-12-07T16:58:09.666Z,13.40
2018-12-07T17:00:43.943Z,13.40
2018-12-07T17:03:19.428Z,13.40
2018-12-07T17:05:54.791Z,13.40
2018-12-07T17:08:28.988Z,13.40
2018-12-07T17:11:03.999Z,13.40
2018-12-07T17:13:39.321Z,13.30
2018-12-07T17:16:13.614Z,13.30
2018-12-07T17:18:48.113Z,13.30
2018-12-07T17:21:22.294Z,13.30
2018-12-07T17:23:57.660Z,13.20
2018-12-07T17:26:31.951Z,13.20
2018-12-07T17:29:06.443Z,13.30
2018-12-07T17:31:41.381Z,13.20
2018-12-07T17:34:15.666Z,13.10
2018-12-07T17:36:49.996Z,13.10
2018-12-07T17:39:26.433Z,13.20
2018-12-07T17:42:00.554Z,13.20
2018-12-07T17:44:34.923Z,13.20
2018-12-07T17:47:11.809Z,13.10
2018-12-07T17:49:47.221Z,13.20
2018-12-07T17:52:21.498Z,13.10
2018-12-07T17:54:55.796Z,13.10
2018-12-07T17:57:29.939Z,13.10
2018-12-07T18:00:06.658Z,13.20
2018-12-07T18:02:40.994Z,13.10
2018-12-07T18:05:15.288Z,13.10
2018-12-07T18:07:49.424Z,13.10
2018-12-07T18:10:23.796Z,13.10
2018-12-07T18:12:57.986Z,13.00
2018-12-07T18:15:32.357Z,13.00
2018-12-07T18:18:06.715Z,12.90
2018-12-07T18:20:41.057Z,12.70
2018-12-07T18:23:15.291Z,12.70
2018-12-07T18:25:49.727Z,12.70
2018-12-07T18:28:24.096Z,12.70
2018-12-07T18:30:58.405Z,12.60
2018-12-07T18:33:34.532Z,12.60
2018-12-07T18:36:08.922Z,12.70
2018-12-07T18:38:46.141Z,12.70
2018-12-07T18:41:20.378Z,12.70
2018-12-07T18:43:54.656Z,12.80
2018-12-07T18:46:28.865Z,12.80
2018-12-07T18:49:03.208Z,12.80
2018-12-07T18:51:37.845Z,12.80
2018-12-07T18:54:12.228Z,12.90
2018-12-07T18:56:46.456Z,12.90
2018-12-07T18:59:20.729Z,12.90
2018-12-07T19:01:54.909Z,12.90
2018-12-07T19:04:29.032Z,12.90
2018-12-07T19:07:03.790Z,13.00
2018-12-07T19:09:38.217Z,13.00
2018-12-07T19:12:12.593Z,13.00
2018-12-07T19:14:46.835Z,13.00
2018-12-07T19:17:22.997Z,12.90
2018-12-07T19:19:57.489Z,12.80
2018-12-07T19:22:31.771Z,12.70
2018-12-07T19:25:07.074Z,12.70
2018-12-07T19:27:41.295Z,12.60
2018-12-07T19:30:15.501Z,12.50
2018-12-07T19:32:50.831Z,12.50
2018-12-07T19:35:27.050Z,12.40
2018-12-07T19:38:01.324Z,12.40
2018-12-07T19:40:36.784Z,12.40
2018-12-07T19:43:11.083Z,12.40
2018-12-07T19:45:45.331Z,12.20
2018-12-07T19:48:19.462Z,11.80
2018-12-07T19:50:53.771Z,11.50
2018-12-07T19:53:28.116Z,11.50
2018-12-07T19:56:03.150Z,11.30
2018-12-07T19:58:37.511Z,11.30
2018-12-07T20:01:11.786Z,11.40
2018-12-07T20:03:46.209Z,11.50
2018-12-07T20:06:24.685Z,11.30
2018-12-07T20:09:02.262Z,11.30
2018-12-07T20:11:38.060Z,11.40
2018-12-07T20:14:12.188Z,11.20
2018-12-07T20:16:46.420Z,11.20
2018-12-07T20:19:25.465Z,11.20
2018-12-07T20:21:59.526Z,11.20
2018-12-07T20:24:35.566Z,11.10
2018-12-07T20:27:09.638Z,11.10
2018-12-07T20:29:43.858Z,11.20
2018-12-07T20:32:18.263Z,11.30
2018-12-07T20:34:52.429Z,11.30
2018-12-07T20:40:15.606Z,11.30
2018-12-07T20:42:50.223Z,11.10
2018-12-07T20:45:25.836Z,11.10
2018-12-07T20:48:00.194Z,11.10
2018-12-07T20:50:35.913Z,11.20
2018-12-07T20:53:10.070Z,11.10
2018-12-07T20:55:44.358Z,11.10
2018-12-07T20:58:18.738Z,11.20
2018-12-07T21:00:59.275Z,11.20
2018-12-07T21:03:40.823Z,11.20
2018-12-07T21:06:38.454Z,11.10
2018-12-07T21:09:26.786Z,11.00
2018-12-07T21:12:11.287Z,11.00
2018-12-07T21:14:50.269Z,10.90
2018-12-07T21:17:28.398Z,10.80
2018-12-07T21:20:15.319Z,10.80
2018-12-07T21:22:53.272Z,10.80
2018-12-07T21:25:27.646Z,10.80
2018-12-07T21:28:02.362Z,10.80
2018-12-07T21:30:55.920Z,10.90
2018-12-07T21:34:40.047Z,10.80
2018-12-07T21:37:16.273Z,10.70
2018-12-07T21:40:18.587Z,10.70
2018-12-07T21:42:54.937Z,10.80
2018-12-07T21:45:29.167Z,10.80
2018-12-07T21:48:34.848Z,10.80
2018-12-07T21:52:19.238Z,10.90
2018-12-07T21:54:53.603Z,10.90
2018-12-07T21:57:27.853Z,10.90
2018-12-07T22:00:02.538Z,10.90
2018-12-07T22:02:37.810Z,10.90
2018-12-07T22:05:12.243Z,10.90
2018-12-07T22:07:46.393Z,10.80
2018-12-07T22:10:20.518Z,10.70
2018-12-07T22:12:54.781Z,10.70
2018-12-07T22:15:29.057Z,10.60
2018-12-07T22:18:03.465Z,10.60
2018-12-07T22:20:37.619Z,10.70
2018-12-07T22:23:11.804Z,10.60
2018-12-07T22:25:46.042Z,10.60
2018-12-07T22:28:20.412Z,10.60
2018-12-07T22:30:54.795Z,10.60
2018-12-07T22:33:29.223Z,10.50
2018-12-07T22:36:04.015Z,10.50
2018-12-07T22:38:38.323Z,10.40
2018-12-07T22:41:13.778Z,10.40
2018-12-07T22:43:48.021Z,10.40
2018-12-07T22:46:22.293Z,10.40
2018-12-07T22:48:56.934Z,10.40
2018-12-07T22:51:31.450Z,10.30
2018-12-07T22:54:05.699Z,10.30
2018-12-07T22:56:39.747Z,10.40
2018-12-07T22:59:13.803Z,10.30
2018-12-07T23:01:48.225Z,10.30
2018-12-07T23:04:26.424Z,10.30
2018-12-07T23:07:00.477Z,10.30
2018-12-07T23:09:34.541Z,10.20
2018-12-07T23:12:08.624Z,10.30
2018-12-07T23:14:42.691Z,10.30
2018-12-07T23:17:16.730Z,10.30
2018-12-07T23:19:50.800Z,10.20
2018-12-07T23:22:24.859Z,10.30
2018-12-07T23:24:58.921Z,10.20
2018-12-07T23:27:32.967Z,10.10
2018-12-07T23:30:08.673Z,10.20
2018-12-07T23:32:43.429Z,10.20
2018-12-07T23:35:17.655Z,10.20
2018-12-07T23:37:51.696Z,10.20
2018-12-07T23:40:25.778Z,10.20
2018-12-07T23:43:01.799Z,10.10
2018-12-07T23:45:35.918Z,10.10
2018-12-07T23:48:09.984Z,10.10
2018-12-07T23:50:44.063Z,10.10
2018-12-07T23:53:18.254Z,10.10
2018-12-07T23:55:52.359Z,10.10
2018-12-07T23:58:26.424Z,10.10
